Terminal Aerodrome Forecast
Issued by NWS

Home | Current Version | Previous Version | Graphics & Text | Print | Product List | Glossary On
Versions: 1 2 3 4 5 6 7 8 9 10 11 12 13 14
268
FTUS43 KMPX 181139
TAFAXN
TAF
KAXN 181139Z 1812/1912 12013G19KT 6SM -SN BR SCT020 OVC070
      TEMPO 1812/1815 2SM -SN BR BKN020
     FM181500 12016G24KT P6SM OVC060
     FM181800 16008KT P6SM OVC070
     FM182000 12008KT P6SM OVC070
     FM182300 36013G21KT P6SM OVC025
     FM190600 02013G20KT P6SM BKN030=

USA.gov is the U.S. government's official web portal to all federal, state and local government web resources and services.